Time;durP1;ratioP1;P1;durP2;ratioP2;P2;SDS_P1;SDS_P2;PMS_P1;PMS_P2;Temp;Humidity;BMP_temperature;BMP_pressure;BME280_temperature;BME280_humidity;BME280_pressure;Samples;Min_cycle;Max_cycle;Signal;HPM_P1;HPM_P2
2024/02/23 00:00:47;;;;;;;0.20;0.20;;;;;;;11.33;89.18;75009.13;4997836;28;20114;-84
2024/02/23 00:03:21;;;;;;;0.20;0.20;;;;;;;10.97;88.07;74967.31;4991292;28;20058;-83
2024/02/23 00:05:51;;;;;;;0.20;0.20;;;;;;;11.01;88.41;74968.72;4985117;28;20027;-84
2024/02/23 00:08:35;;;;;;;0.20;0.20;;;;;;;10.90;86.60;74964.47;4996080;28;20030;-85
2024/02/23 00:11:23;;;;;;;0.20;0.20;;;;;;;11.03;84.23;74973.91;4997090;28;20035;-83
2024/02/23 00:13:50;;;;;;;0.20;0.20;;;;;;;10.99;85.24;74969.72;4980194;28;20049;-84
2024/02/23 00:16:23;;;;;;;0.20;0.20;;;;;;;11.18;84.40;74988.44;4983099;28;20147;-83
2024/02/23 00:19:06;;;;;;;0.20;0.20;;;;;;;11.31;83.59;75004.00;5015085;28;20034;-83
2024/02/23 00:21:47;;;;;;;0.20;0.20;;;;;;;11.14;81.53;74986.44;5015079;28;20050;-83
2024/02/23 00:24:40;;;;;;;0.20;0.20;;;;;;;11.24;80.08;75001.75;4999417;28;20034;-83
2024/02/23 00:27:09;;;;;;;0.20;0.20;;;;;;;11.01;79.80;74971.50;4999517;28;20004;-83
2024/02/23 00:29:44;;;;;;;0.20;0.20;;;;;;;11.35;80.00;75011.53;4983111;28;20042;-84
2024/02/23 00:32:37;;;;;;;0.20;0.20;;;;;;;11.23;80.39;75000.53;4984492;28;20026;-83
2024/02/23 00:35:28;;;;;;;0.20;0.20;;;;;;;11.55;81.66;75035.44;5011040;28;20034;-83
2024/02/23 00:38:23;;;;;;;0.20;0.20;;;;;;;11.37;83.94;75013.34;5031232;28;20045;-83
2024/02/23 00:41:29;;;;;;;0.20;0.20;;;;;;;11.58;86.38;75040.59;5016457;28;20083;-82
2024/02/23 00:44:36;;;;;;;0.30;0.30;;;;;;;11.61;87.45;75041.41;5016302;28;20030;-83
2024/02/23 00:47:35;;;;;;;0.20;0.20;;;;;;;11.39;88.32;75016.31;5016395;28;20125;-82
2024/02/23 00:50:28;;;;;;;0.20;0.20;;;;;;;11.49;90.29;75027.66;5016186;28;20022;-82
2024/02/23 00:52:56;;;;;;;0.20;0.20;;;;;;;11.38;91.92;75020.66;4982358;28;20052;-83
2024/02/23 00:55:26;;;;;;;0.20;0.20;;;;;;;11.71;93.65;75050.59;5015136;28;20022;-85
2024/02/23 00:58:15;;;;;;;0.20;0.20;;;;;;;11.61;93.39;75044.19;5012882;28;20111;-82
2024/02/23 01:00:56;;;;;;;0.20;0.20;;;;;;;11.51;94.03;75030.66;5015257;28;20018;-83
2024/02/23 01:03:30;;;;;;;0.20;0.20;;;;;;;11.66;94.75;75047.41;4982815;28;20014;-83
2024/02/23 01:06:06;;;;;;;0.20;0.20;;;;;;;11.73;94.81;75056.38;4979164;28;20031;-84
2024/02/23 01:08:36;;;;;;;0.20;0.20;;;;;;;11.61;94.58;75044.81;4978607;28;20039;-83
2024/02/23 01:11:07;;;;;;;0.20;0.20;;;;;;;11.38;95.81;75014.53;4979679;28;20042;-82
2024/02/23 01:13:41;;;;;;;0.20;0.20;;;;;;;11.62;95.44;75048.16;4993875;28;20251;-82
2024/02/23 01:16:24;;;;;;;0.20;0.20;;;;;;;11.64;95.92;75045.00;4977181;28;20027;-83
2024/02/23 01:19:16;;;;;;;0.20;0.20;;;;;;;11.47;96.83;75031.41;4994301;28;20047;-84
2024/02/23 01:21:42;;;;;;;0.20;0.20;;;;;;;11.66;97.86;75047.41;4978767;28;20051;-83
2024/02/23 01:24:15;;;;;;;0.20;0.20;;;;;;;11.59;98.68;75044.56;4979345;28;20030;-83
2024/02/23 01:26:50;;;;;;;0.20;0.20;;;;;;;11.55;98.61;75040.97;4992496;28;20019;-83
2024/02/23 01:29:16;;;;;;;0.20;0.20;;;;;;;11.45;99.42;75020.13;4995771;28;20027;-83
2024/02/23 01:31:51;;;;;;;0.20;0.20;;;;;;;11.63;100.00;75044.41;4995920;28;20013;-84
2024/02/23 01:34:42;;;;;;;0.20;0.20;;;;;;;11.80;99.85;75069.69;4978897;28;20027;-83
2024/02/23 01:37:29;;;;;;;0.20;0.20;;;;;;;11.52;99.44;75031.25;4996206;28;20054;-83
2024/02/23 01:39:59;;;;;;;0.20;0.20;;;;;;;11.46;99.37;75018.56;4979194;28;20034;-83
2024/02/23 01:42:34;;;;;;;0.20;0.20;;;;;;;11.59;99.73;75039.03;4940558;28;20047;-84
2024/02/23 01:45:22;;;;;;;0.20;0.20;;;;;;;11.50;99.63;75029.47;4995843;28;20023;-84
2024/02/23 01:48:04;;;;;;;0.20;0.20;;;;;;;11.78;99.50;75061.75;4977125;28;20042;-83
2024/02/23 01:50:47;;;;;;;0.20;0.20;;;;;;;11.54;99.63;75037.00;4994928;28;20038;-83
2024/02/23 01:53:16;;;;;;;0.20;0.20;;;;;;;11.48;98.72;75029.84;4988775;28;20035;-82
2024/02/23 01:55:47;;;;;;;0.20;0.20;;;;;;;11.71;98.33;75056.13;4978005;28;20054;-85
2024/02/23 01:58:47;;;;;;;0.20;0.20;;;;;;;11.47;98.44;75019.75;4991974;28;20035;-83
2024/02/23 02:01:22;;;;;;;0.20;0.20;;;;;;;11.75;97.85;75055.38;4994055;28;20030;-83
2024/02/23 02:03:53;;;;;;;0.20;0.20;;;;;;;11.72;98.42;75055.19;4986553;28;20166;-82
2024/02/23 02:06:21;;;;;;;0.20;0.20;;;;;;;11.61;98.93;75047.56;4970462;28;20095;-83
2024/02/23 02:08:51;;;;;;;0.20;0.20;;;;;;;11.50;98.73;75026.72;4970106;28;20039;-83
2024/02/23 02:12:14;;;;;;;0.20;0.20;;;;;;;11.82;99.64;75066.53;4990244;28;20031;-84
2024/02/23 02:15:07;;;;;;;;;;;;;;;11.81;99.18;75065.34;4996961;28;20034;-83
2024/02/23 02:17:35;;;;;;;0.20;0.20;;;;;;;11.69;100.00;75051.00;4996886;28;19918;-85
2024/02/23 02:20:13;;;;;;;0.20;0.20;;;;;;;11.61;100.00;75046.94;4979408;28;20039;-84
2024/02/23 02:23:07;;;;;;;0.20;0.20;;;;;;;11.79;100.00;75062.94;4996286;28;20049;-83
2024/02/23 02:26:12;;;;;;;0.20;0.20;;;;;;;11.75;99.96;75063.69;4996558;28;20030;-83
2024/02/23 02:28:57;;;;;;;0.20;0.20;;;;;;;11.79;100.00;75062.94;4969224;28;20019;-83
2024/02/23 02:32:05;;;;;;;0.20;0.20;;;;;;;11.76;100.00;75062.13;4997836;28;20023;-83
2024/02/23 02:34:50;;;;;;;0.20;0.20;;;;;;;11.77;100.00;75068.84;4979098;28;20041;-83
2024/02/23 02:37:17;;;;;;;0.20;0.20;;;;;;;11.47;100.00;75028.06;4996783;28;20026;-83
2024/02/23 02:40:13;;;;;;;0.20;0.20;;;;;;;11.59;100.00;75044.56;4964094;28;20046;-84
2024/02/23 02:42:59;;;;;;;0.20;0.20;;;;;;;11.77;100.00;75057.78;4991889;28;20038;-82
2024/02/23 02:45:52;;;;;;;0.20;0.20;;;;;;;11.87;100.00;75072.53;4996029;28;20010;-83
2024/02/23 02:48:21;;;;;;;0.20;0.20;;;;;;;11.87;100.00;75078.06;4979482;28;20138;-82
2024/02/23 02:50:52;;;;;;;0.20;0.20;;;;;;;11.79;100.00;75062.94;4992966;28;20030;-83
2024/02/23 02:53:48;;;;;;;0.20;0.20;;;;;;;11.57;100.00;75040.00;4996284;28;20027;-82
2024/02/23 02:56:34;;;;;;;0.20;0.20;;;;;;;11.78;100.00;75062.34;4993379;28;20035;-83
2024/02/23 02:59:26;;;;;;;0.20;0.20;;;;;;;11.90;100.00;75081.66;4978778;28;20026;-83
2024/02/23 03:02:13;;;;;;;0.20;0.20;;;;;;;11.58;100.00;75037.84;4996587;28;20034;-84
2024/02/23 03:05:22;;;;;;;0.20;0.20;;;;;;;11.57;100.00;75039.41;4985559;28;20053;-83
2024/02/23 03:08:16;;;;;;;0.20;0.20;;;;;;;11.92;100.00;75075.13;4999959;28;20037;-84
2024/02/23 03:10:48;;;;;;;0.20;0.20;;;;;;;11.89;100.00;75077.69;4999497;28;20039;-84
2024/02/23 03:13:26;;;;;;;0.20;0.20;;;;;;;11.93;100.00;75082.50;4997958;28;20054;-83
2024/02/23 03:16:25;;;;;;;0.20;0.20;;;;;;;11.84;100.00;75071.13;4980475;28;20015;-83
2024/02/23 03:19:07;;;;;;;0.20;0.20;;;;;;;11.93;99.60;75079.72;4999424;28;20070;-83
2024/02/23 03:21:52;;;;;;;0.20;0.20;;;;;;;11.69;98.98;75045.44;4982316;28;20049;-84
2024/02/23 03:25:09;;;;;;;0.20;0.20;;;;;;;11.92;98.11;75081.28;4980408;28;20042;-83
2024/02/23 03:27:55;;;;;;;0.20;0.20;;;;;;;11.92;97.78;75078.50;4993597;28;20034;-82
2024/02/23 03:30:51;;;;;;;0.20;0.20;;;;;;;11.63;97.32;75049.97;4998741;28;20031;-84
2024/02/23 03:33:24;;;;;;;0.20;0.20;;;;;;;11.93;96.49;75081.88;4996041;28;20019;-83
2024/02/23 03:36:42;;;;;;;0.20;0.20;;;;;;;11.78;95.41;75061.75;4997552;28;20031;-84
2024/02/23 03:40:19;;;;;;;0.20;0.20;;;;;;;11.95;94.39;75082.09;4996686;28;20035;-83
2024/02/23 03:43:54;;;;;;;0.20;0.20;;;;;;;11.97;93.56;75084.50;4998119;28;20027;-84
2024/02/23 03:46:37;;;;;;;0.20;0.20;;;;;;;11.87;92.97;75075.28;4999201;28;20025;-83
2024/02/23 03:49:12;;;;;;;0.20;0.20;;;;;;;12.04;92.68;75092.88;4983425;28;20031;-83
2024/02/23 03:52:06;;;;;;;0.30;0.30;;;;;;;11.70;90.92;75057.72;4998324;28;20057;-83
2024/02/23 03:54:56;;;;;;;0.20;0.20;;;;;;;11.82;91.93;75069.31;4978648;28;20039;-83
2024/02/23 04:00:51;;;;;;;0.20;0.20;;;;;;;11.80;95.17;75061.38;4996100;28;20018;-82
2024/02/23 04:03:30;;;;;;;0.20;0.20;;;;;;;11.70;94.17;75050.00;4998675;28;20022;-84
2024/02/23 04:06:09;;;;;;;0.20;0.20;;;;;;;11.98;92.65;75085.09;4981858;28;20038;-84
2024/02/23 04:08:43;;;;;;;0.20;0.20;;;;;;;11.91;92.39;75076.72;4998680;28;20031;-82
2024/02/23 04:11:43;;;;;;;0.20;0.20;;;;;;;12.15;94.25;75108.19;4995318;28;20038;-84
2024/02/23 04:14:54;;;;;;;0.22;0.22;;;;;;;12.03;94.10;75082.75;4981592;28;20031;-82
2024/02/23 04:17:25;;;;;;;0.20;0.20;;;;;;;12.14;93.22;75104.22;4996354;28;20051;-83
2024/02/23 04:19:56;;;;;;;0.20;0.20;;;;;;;11.89;92.54;75080.47;4995001;28;20031;-83
2024/02/23 04:22:26;;;;;;;0.20;0.20;;;;;;;12.04;93.91;75095.06;4995180;28;20014;-83
2024/02/23 04:24:57;;;;;;;0.20;0.20;;;;;;;12.18;95.18;75108.41;4994751;28;20054;-83
2024/02/23 04:27:25;;;;;;;0.20;0.20;;;;;;;11.98;94.68;75085.69;4978390;28;20081;-83
2024/02/23 04:30:18;;;;;;;0.20;0.20;;;;;;;11.95;93.07;75087.66;4997809;28;20038;-84
2024/02/23 04:32:57;;;;;;;0.20;0.20;;;;;;;11.96;92.26;75091.59;4981635;28;20030;-83
2024/02/23 04:35:50;;;;;;;0.20;0.20;;;;;;;12.11;92.72;75100.66;5022304;28;20034;-84
2024/02/23 04:38:58;;;;;;;0.20;0.20;;;;;;;12.09;93.64;75094.88;4996045;28;20038;-83
2024/02/23 04:41:39;;;;;;;0.20;0.20;;;;;;;11.75;94.23;75060.94;5014935;28;20030;-84
2024/02/23 04:44:13;;;;;;;0.20;0.20;;;;;;;12.00;93.07;75087.50;4999737;28;20038;-83
2024/02/23 04:46:46;;;;;;;0.20;0.20;;;;;;;11.97;92.60;75087.25;4984452;28;20034;-83
2024/02/23 04:49:13;;;;;;;0.20;0.20;;;;;;;12.08;91.73;75097.03;5001114;28;20030;-85
2024/02/23 04:51:43;;;;;;;0.20;0.20;;;;;;;11.86;89.44;75074.09;5000151;28;20042;-83
2024/02/23 04:54:22;;;;;;;0.20;0.20;;;;;;;11.88;87.80;75073.75;4999822;28;20041;-83
2024/02/23 04:57:11;;;;;;;0.20;0.20;;;;;;;11.78;87.95;75061.75;5016715;28;20034;-84
2024/02/23 04:59:50;;;;;;;0.20;0.20;;;;;;;12.03;87.86;75091.66;5000401;28;20058;-84
2024/02/23 05:02:35;;;;;;;0.20;0.20;;;;;;;12.08;86.11;75102.59;5015239;28;20030;-83
2024/02/23 05:05:04;;;;;;;;;;;;;;;12.12;84.55;75101.84;5000165;28;20042;-84
2024/02/23 05:07:50;;;;;;;0.20;0.20;;;;;;;11.77;84.34;75063.94;5000044;28;19902;-84
2024/02/23 05:10:22;;;;;;;0.20;0.20;;;;;;;12.10;83.42;75104.41;4998577;28;20093;-84
2024/02/23 05:13:07;;;;;;;0.20;0.20;;;;;;;11.75;83.93;75053.22;4984351;28;20038;-84
2024/02/23 05:15:42;;;;;;;0.20;0.20;;;;;;;12.11;84.57;75100.03;4985568;28;20026;-83
2024/02/23 05:18:59;;;;;;;0.20;0.20;;;;;;;12.09;84.71;75098.25;5016054;28;20061;-83
2024/02/23 05:22:10;;;;;;;0.20;0.20;;;;;;;12.01;84.11;75088.69;5016432;28;20030;-84
2024/02/23 05:24:58;;;;;;;0.20;0.20;;;;;;;11.88;83.22;75073.75;5012227;28;20454;-84
2024/02/23 05:27:30;;;;;;;0.20;0.20;;;;;;;12.01;83.02;75088.69;5013281;28;20045;-82
2024/02/23 05:30:35;;;;;;;0.20;0.20;;;;;;;11.76;83.60;75059.34;4999050;28;20042;-84
2024/02/23 05:33:32;;;;;;;0.20;0.20;;;;;;;11.85;82.99;75070.16;4991254;28;20042;-84
2024/02/23 05:36:12;;;;;;;0.20;0.20;;;;;;;11.98;82.50;75090.63;4980737;28;20027;-84
2024/02/23 05:39:01;;;;;;;0.20;0.20;;;;;;;11.95;82.91;75081.50;4962543;29;20046;-84
2024/02/23 05:41:43;;;;;;;0.20;0.20;;;;;;;11.88;83.18;75073.13;4977245;28;20128;-84
2024/02/23 05:44:25;;;;;;;0.20;0.20;;;;;;;11.60;83.42;75040.22;4977144;29;20027;-84
2024/02/23 05:47:26;;;;;;;0.20;0.20;;;;;;;11.77;84.60;75061.16;4962723;29;20027;-85
2024/02/23 05:50:14;;;;;;;0.20;0.20;;;;;;;11.59;85.58;75041.81;4976224;28;20032;-84
2024/02/23 05:53:04;;;;;;;0.20;0.20;;;;;;;11.66;84.27;75048.00;4975936;28;20068;-83
2024/02/23 05:56:13;;;;;;;0.20;0.20;;;;;;;12.09;84.17;75097.63;4975899;28;20023;-83
2024/02/23 05:58:52;;;;;;;0.20;0.20;;;;;;;12.00;83.35;75093.03;4963845;29;20026;-83
2024/02/23 06:01:21;;;;;;;0.20;0.20;;;;;;;11.89;82.48;75077.69;4975046;29;20031;-83
2024/02/23 06:03:55;;;;;;;0.20;0.20;;;;;;;12.07;81.47;75102.00;4956169;29;20099;-83
2024/02/23 06:06:32;;;;;;;0.20;0.20;;;;;;;12.22;82.81;75113.19;4976546;29;20142;-83
2024/02/23 06:09:21;;;;;;;0.20;0.20;;;;;;;12.21;83.01;75112.59;4965587;28;20035;-84
2024/02/23 06:11:55;;;;;;;0.20;0.20;;;;;;;12.02;82.63;75087.69;4980359;28;20035;-83
2024/02/23 06:14:27;;;;;;;0.20;0.20;;;;;;;12.29;82.49;75124.34;4979086;28;20104;-83
2024/02/23 06:17:06;;;;;;;0.20;0.20;;;;;;;12.26;82.06;75118.00;4963315;28;20034;-83
2024/02/23 06:19:50;;;;;;;0.20;0.20;;;;;;;12.16;80.90;75100.47;4995502;28;20030;-84
2024/02/23 06:22:21;;;;;;;0.20;0.20;;;;;;;12.23;80.88;75117.16;4995811;28;20038;-83
2024/02/23 06:25:01;;;;;;;0.20;0.20;;;;;;;12.41;81.24;75138.72;4978809;28;20043;-83
2024/02/23 06:27:33;;;;;;;0.20;0.20;;;;;;;12.18;80.71;75109.00;4995884;28;20042;-84
2024/02/23 06:33:22;;;;;;;0.20;0.20;;;;;;;12.30;79.97;75123.38;4996470;28;20543;-83
2024/02/23 06:35:56;;;;;;;0.20;0.20;;;;;;;12.23;79.52;75115.00;4995442;28;20010;-83
2024/02/23 06:41:49;;;;;;;0.20;0.20;;;;;;;12.18;78.70;75108.41;5000073;28;20034;-83
2024/02/23 06:47:58;;;;;;;0.20;0.20;;;;;;;12.67;78.08;75168.59;4960519;29;20108;-83
2024/02/23 06:50:28;;;;;;;0.20;0.20;;;;;;;12.47;77.59;75136.97;4957785;29;20063;-84
2024/02/23 06:52:57;;;;;;;0.20;0.20;;;;;;;13.07;74.89;75213.69;4940179;29;20040;-84
2024/02/23 06:55:41;;;;;;;0.20;0.20;;;;;;;13.20;74.16;75228.06;4958568;29;20048;-82
2024/02/23 07:01:51;;;;;;;0.20;0.20;;;;;;;14.28;69.51;75357.78;4960007;29;20058;-83
2024/02/23 07:04:20;;;;;;;0.20;0.20;;;;;;;14.30;68.47;75362.97;4943339;29;20047;-84
2024/02/23 07:10:08;;;;;;;0.20;0.20;;;;;;;14.19;68.38;75344.22;4960246;29;20034;-85
2024/02/23 07:13:14;;;;;;;0.20;0.20;;;;;;;14.37;68.16;75360.22;4956786;29;20042;-85
2024/02/23 07:15:52;;;;;;;0.20;0.20;;;;;;;14.61;66.47;75393.97;4978545;28;20533;-85
2024/02/23 07:18:22;;;;;;;0.20;0.20;;;;;;;14.70;67.45;75412.47;4996863;28;20054;-84
2024/02/23 07:21:18;;;;;;;0.20;0.20;;;;;;;14.29;67.54;75356.22;4995458;28;20078;-84
2024/02/23 07:23:46;;;;;;;0.20;0.20;;;;;;;14.24;68.07;75350.81;4973142;28;20034;-84
2024/02/23 07:26:11;;;;;;;0.20;0.20;;;;;;;14.19;68.34;75344.81;4973476;28;20042;-84
2024/02/23 07:28:37;;;;;;;0.20;0.20;;;;;;;15.49;62.98;75497.63;4974978;28;20090;-84
2024/02/23 07:31:03;;;;;;;0.20;0.20;;;;;;;15.62;60.98;75513.22;4975953;28;20042;-83
2024/02/23 07:33:30;;;;;;;0.20;0.20;;;;;;;15.73;61.15;75520.25;4988975;28;20039;-82
2024/02/23 07:35:55;;;;;;;0.20;0.20;;;;;;;15.99;60.43;75553.59;4960508;28;20027;-84
2024/02/23 07:38:31;;;;;;;0.20;0.20;;;;;;;15.89;57.44;75539.41;4999409;28;20015;-85
2024/02/23 07:40:58;;;;;;;0.20;0.20;;;;;;;15.91;58.53;75541.22;5005232;28;20026;-85
2024/02/23 07:43:36;;;;;;;0.20;0.20;;;;;;;15.83;58.09;75537.81;5018295;28;20022;-84
2024/02/23 07:46:22;;;;;;;0.20;0.20;;;;;;;16.02;57.52;75559.97;4999836;28;20053;-85
2024/02/23 07:49:11;;;;;;;0.20;0.20;;;;;;;15.88;57.99;75540.41;5001553;28;20086;-84
2024/02/23 07:52:10;;;;;;;0.20;0.20;;;;;;;16.08;57.54;75566.56;5019231;28;20030;-84
2024/02/23 07:54:37;;;;;;;0.20;0.20;;;;;;;15.47;58.49;75489.66;5015460;28;20038;-83
2024/02/23 07:57:17;;;;;;;0.20;0.20;;;;;;;15.24;60.48;75468.25;5001009;28;20034;-85
2024/02/23 07:59:43;;;;;;;0.20;0.20;;;;;;;15.31;60.44;75476.63;4988181;28;20034;-83
2024/02/23 08:02:14;;;;;;;0.20;0.20;;;;;;;14.70;62.08;75404.13;4998329;28;20053;-84
2024/02/23 08:04:53;;;;;;;0.20;0.20;;;;;;;14.66;62.59;75394.97;4998567;28;20022;-84
2024/02/23 08:07:20;;;;;;;0.20;0.20;;;;;;;14.96;63.20;75435.28;4979517;28;20045;-83
2024/02/23 08:09:54;;;;;;;0.20;0.20;;;;;;;14.74;62.97;75409.53;4949807;29;20035;-83
2024/02/23 08:12:25;;;;;;;0.20;0.20;;;;;;;14.73;62.83;75405.56;4941567;29;20032;-83
2024/02/23 08:14:59;;;;;;;0.20;0.20;;;;;;;14.78;63.07;75414.31;4955145;29;20043;-84
2024/02/23 08:17:36;;;;;;;0.20;0.20;;;;;;;15.23;61.51;75461.47;4956917;29;20028;-82
2024/02/23 08:20:06;;;;;;;0.20;0.20;;;;;;;15.92;59.81;75545.78;4941028;29;20071;-83
2024/02/23 08:22:41;;;;;;;0.20;0.20;;;;;;;16.30;57.28;75589.56;4957977;29;20023;-84
2024/02/23 08:25:20;;;;;;;0.20;0.20;;;;;;;16.54;55.66;75618.34;4974655;29;20035;-83
2024/02/23 08:27:47;;;;;;;0.20;0.20;;;;;;;16.66;55.46;75629.97;4945622;29;20031;-82
2024/02/23 08:30:20;;;;;;;0.20;0.20;;;;;;;16.44;55.24;75612.53;4960535;29;20014;-84
2024/02/23 08:32:47;;;;;;;0.20;0.20;;;;;;;16.93;54.17;75663.97;4973067;29;20047;-84
2024/02/23 08:35:15;;;;;;;0.20;0.20;;;;;;;16.31;54.75;75588.00;4957863;29;20059;-84
2024/02/23 08:37:44;;;;;;;0.20;0.20;;;;;;;16.35;55.36;75598.34;4934020;29;20024;-83
2024/02/23 08:40:13;;;;;;;0.20;0.20;;;;;;;16.47;55.29;75613.34;4930522;29;20043;-84
2024/02/23 08:42:39;;;;;;;0.20;0.20;;;;;;;15.98;55.53;75555.78;4960468;29;20159;-83
2024/02/23 08:45:05;;;;;;;0.20;0.20;;;;;;;15.63;57.02;75514.41;4933493;29;20032;-84
2024/02/23 08:47:35;;;;;;;0.20;0.20;;;;;;;15.58;56.62;75505.03;4962691;28;20046;-83
2024/02/23 08:50:01;;;;;;;0.20;0.20;;;;;;;15.71;56.91;75523.41;4987078;28;20026;-83
2024/02/23 08:52:27;;;;;;;0.20;0.20;;;;;;;15.68;57.01;75511.47;4987215;28;20027;-83
2024/02/23 08:54:54;;;;;;;0.20;0.20;;;;;;;16.67;53.75;75636.13;4986651;28;20030;-83
2024/02/23 08:57:22;;;;;;;0.20;0.20;;;;;;;17.13;52.34;75690.16;4986433;28;20096;-83
2024/02/23 08:59:48;;;;;;;0.20;0.20;;;;;;;16.93;52.00;75666.75;4976126;28;20038;-83
2024/02/23 09:02:14;;;;;;;0.20;0.20;;;;;;;17.53;50.87;75737.59;4986931;28;20038;-83
2024/02/23 09:04:40;;;;;;;0.20;0.20;;;;;;;17.16;50.65;75694.38;4980478;28;20038;-83
2024/02/23 09:07:09;;;;;;;0.20;0.20;;;;;;;17.19;50.42;75697.97;4985617;28;20034;-84
2024/02/23 09:09:37;;;;;;;0.20;0.20;;;;;;;16.36;51.96;75594.00;5007645;28;20039;-84
2024/02/23 09:12:11;;;;;;;0.20;0.20;;;;;;;16.44;52.32;75606.38;4962918;28;20062;-82
2024/02/23 09:14:47;;;;;;;0.20;0.20;;;;;;;16.73;51.53;75641.19;4986763;28;20521;-85
2024/02/23 09:17:25;;;;;;;0.20;0.20;;;;;;;16.98;51.03;75667.16;4996807;28;20034;-84
2024/02/23 09:19:59;;;;;;;0.20;0.20;;;;;;;17.31;49.46;75705.56;4993782;28;20058;-84
2024/02/23 09:22:31;;;;;;;0.20;0.20;;;;;;;16.76;50.57;75641.97;4991804;28;20070;-85
2024/02/23 09:25:09;;;;;;;0.20;0.20;;;;;;;16.49;51.47;75615.16;4993283;28;20053;-84
2024/02/23 09:27:44;;;;;;;0.20;0.20;;;;;;;16.39;52.72;75603.16;4995713;28;20099;-84
2024/02/23 09:30:15;;;;;;;0.20;0.20;;;;;;;17.22;50.80;75695.97;4995883;28;20026;-84
2024/02/23 09:32:50;;;;;;;0.20;0.20;;;;;;;17.39;49.81;75715.19;4995059;28;20026;-84
2024/02/23 09:35:19;;;;;;;0.20;0.20;;;;;;;17.00;49.52;75672.97;4980131;28;20081;-85
2024/02/23 09:37:46;;;;;;;0.20;0.20;;;;;;;17.06;49.54;75678.97;4978916;28;20027;-84
2024/02/23 09:40:14;;;;;;;0.20;0.20;;;;;;;17.17;49.56;75689.38;4995128;28;20019;-83
2024/02/23 09:43:01;;;;;;;0.20;0.20;;;;;;;17.65;49.75;75751.97;4995476;28;20011;-84
2024/02/23 09:45:33;;;;;;;0.20;0.20;;;;;;;16.67;51.44;75628.38;4990907;28;20042;-84
2024/02/23 09:48:03;;;;;;;0.20;0.20;;;;;;;17.29;50.54;75707.16;4978419;28;20033;-84
2024/02/23 09:50:37;;;;;;;0.20;0.20;;;;;;;16.55;51.67;75619.56;4994837;28;20039;-84
2024/02/23 09:53:11;;;;;;;0.20;0.20;;;;;;;16.72;52.08;75637.19;4960372;29;20093;-84
2024/02/23 09:55:48;;;;;;;0.20;0.20;;;;;;;16.60;51.77;75628.34;4990182;28;20041;-84
2024/02/23 09:58:19;;;;;;;0.20;0.20;;;;;;;16.17;53.43;75575.19;4991879;28;20039;-84
2024/02/23 10:00:46;;;;;;;0.20;0.20;;;;;;;16.33;52.81;75590.38;4994447;28;20027;-83
2024/02/23 10:03:12;;;;;;;0.20;0.20;;;;;;;16.18;53.05;75579.16;4994714;28;20058;-81
2024/02/23 10:05:38;;;;;;;0.20;0.20;;;;;;;16.48;52.07;75608.38;4983999;28;20046;-84
2024/02/23 10:08:07;;;;;;;0.20;0.20;;;;;;;16.58;51.93;75620.38;4983552;28;20030;-84
2024/02/23 10:10:35;;;;;;;0.20;0.20;;;;;;;16.37;53.26;75597.97;4982326;28;20026;-83
2024/02/23 10:13:01;;;;;;;0.20;0.20;;;;;;;16.20;53.17;75581.56;4984258;28;20054;-83
2024/02/23 10:15:31;;;;;;;0.20;0.20;;;;;;;16.04;54.07;75559.00;4971937;28;20098;-83
2024/02/23 10:17:56;;;;;;;0.20;0.20;;;;;;;16.20;53.69;75578.19;4973950;28;20059;-83
2024/02/23 10:20:28;;;;;;;0.20;0.20;;;;;;;16.21;54.08;75582.78;4991680;28;20054;-83
2024/02/23 10:22:55;;;;;;;0.20;0.20;;;;;;;16.38;53.59;75601.97;4990027;28;20023;-84
2024/02/23 10:25:26;;;;;;;0.20;0.20;;;;;;;16.49;53.40;75609.56;4969978;28;20049;-84
2024/02/23 10:27:52;;;;;;;0.20;0.20;;;;;;;16.14;54.51;75571.59;4984963;28;20031;-84
2024/02/23 10:30:19;;;;;;;0.20;0.20;;;;;;;17.11;52.91;75688.38;4982596;28;20062;-84
2024/02/23 10:32:47;;;;;;;0.20;0.20;;;;;;;16.89;52.59;75659.19;4983788;28;20057;-84
2024/02/23 10:35:21;;;;;;;0.20;0.20;;;;;;;16.75;51.26;75634.59;4981379;28;20030;-84
2024/02/23 10:37:53;;;;;;;0.20;0.20;;;;;;;17.08;50.17;75681.97;4984488;28;20076;-83
2024/02/23 10:40:22;;;;;;;0.20;0.20;;;;;;;16.91;49.66;75658.78;4984125;28;20019;-84
2024/02/23 10:42:51;;;;;;;0.20;0.20;;;;;;;16.71;51.72;75635.38;4982008;28;20043;-84
2024/02/23 10:45:24;;;;;;;0.20;0.20;;;;;;;16.40;51.83;75598.78;4983824;28;20085;-83
2024/02/23 10:47:51;;;;;;;0.20;0.20;;;;;;;16.58;51.80;75623.16;4983516;28;20029;-84
2024/02/23 10:50:19;;;;;;;0.20;0.20;;;;;;;16.96;50.42;75673.16;4982367;28;20027;-83
2024/02/23 10:52:45;;;;;;;0.20;0.20;;;;;;;17.11;49.99;75682.78;4980549;28;20090;-83
2024/02/23 10:55:11;;;;;;;0.20;0.20;;;;;;;17.31;49.37;75708.38;4979963;28;20026;-83
2024/02/23 10:57:37;;;;;;;0.20;0.20;;;;;;;17.83;48.37;75766.81;4984220;28;20049;-84
2024/02/23 11:00:11;;;;;;;0.20;0.20;;;;;;;17.45;48.62;75727.97;4989721;28;20030;-84
2024/02/23 11:02:50;;;;;;;0.20;0.20;;;;;;;17.31;49.10;75703.41;4987009;28;20061;-84
2024/02/23 11:05:19;;;;;;;0.20;0.20;;;;;;;17.99;48.53;75786.63;4987960;28;20434;-83
2024/02/23 11:07:51;;;;;;;0.20;0.20;;;;;;;17.18;49.33;75691.16;4982574;28;20030;-84
2024/02/23 11:10:24;;;;;;;0.20;0.20;;;;;;;17.60;48.84;75740.38;4980581;28;20014;-85
2024/02/23 11:12:59;;;;;;;0.20;0.20;;;;;;;17.64;48.08;75747.38;4986608;28;20027;-84
2024/02/23 11:15:30;;;;;;;0.20;0.20;;;;;;;17.47;48.10;75730.34;4986598;28;20182;-84
2024/02/23 11:18:23;;;;;;;0.20;0.20;;;;;;;17.53;48.55;75732.00;4984036;28;20019;-85
2024/02/23 11:20:59;;;;;;;;;;;;;;;17.32;49.08;75707.38;5001689;28;20073;-83
2024/02/23 11:23:26;;;;;;;0.20;0.20;;;;;;;16.94;48.95;75662.38;4998118;28;19913;-82
2024/02/23 11:26:16;;;;;;;0.20;0.20;;;;;;;17.16;49.79;75688.78;4998617;28;20038;-83
2024/02/23 11:28:58;;;;;;;0.20;0.20;;;;;;;16.57;48.90;75618.59;5001075;28;20038;-83
2024/02/23 11:31:38;;;;;;;0.20;0.20;;;;;;;16.29;49.42;75585.59;4998109;28;20010;-83
2024/02/23 11:34:11;;;;;;;0.20;0.20;;;;;;;16.34;49.52;75597.16;4985233;28;20026;-83
2024/02/23 11:36:39;;;;;;;0.20;0.20;;;;;;;16.45;48.49;75604.75;5014287;28;20053;-83
2024/02/23 11:39:06;;;;;;;0.20;0.20;;;;;;;16.79;48.41;75645.00;4988369;28;20035;-84
2024/02/23 11:41:32;;;;;;;0.20;0.20;;;;;;;16.58;48.61;75620.38;4971536;28;20042;-84
2024/02/23 11:43:58;;;;;;;0.20;0.20;;;;;;;16.65;48.43;75631.56;4988052;28;20034;-85
2024/02/23 11:46:24;;;;;;;0.20;0.20;;;;;;;16.41;48.95;75603.38;4986834;28;20180;-83
2024/02/23 11:48:54;;;;;;;0.20;0.20;;;;;;;16.69;48.96;75633.56;5005212;28;20030;-83
2024/02/23 11:51:21;;;;;;;0.20;0.20;;;;;;;16.46;48.71;75609.38;5003607;28;20045;-83
2024/02/23 11:53:47;;;;;;;0.20;0.20;;;;;;;16.54;50.05;75612.78;4986862;28;20129;-83
2024/02/23 11:56:13;;;;;;;0.20;0.20;;;;;;;16.44;50.15;75600.78;4986446;28;20034;-84
2024/02/23 11:58:43;;;;;;;0.20;0.20;;;;;;;16.40;50.35;75602.16;4989741;28;20105;-84
2024/02/23 12:01:12;;;;;;;0.20;0.20;;;;;;;16.50;50.39;75613.56;4991392;28;20022;-84
2024/02/23 12:03:40;;;;;;;0.20;0.20;;;;;;;16.42;49.83;75601.19;5006933;28;20165;-84
2024/02/23 12:06:24;;;;;;;0.20;0.20;;;;;;;16.35;49.60;75595.56;4997329;28;20045;-84
2024/02/23 12:08:51;;;;;;;0.20;0.20;;;;;;;16.07;50.65;75559.81;4998074;28;20034;-84
2024/02/23 12:11:27;;;;;;;0.20;0.20;;;;;;;15.87;50.74;75534.25;4989534;28;20030;-84
2024/02/23 12:13:53;;;;;;;0.20;0.20;;;;;;;16.18;50.43;75570.19;4996164;28;20022;-83
2024/02/23 12:16:30;;;;;;;0.20;0.20;;;;;;;16.43;50.15;75602.38;4990931;28;20098;-84
2024/02/23 12:19:03;;;;;;;0.20;0.20;;;;;;;16.23;50.35;75579.59;5012117;28;20046;-84
2024/02/23 12:21:34;;;;;;;0.20;0.20;;;;;;;16.66;49.80;75632.75;5011043;28;20098;-84
2024/02/23 12:24:00;;;;;;;0.20;0.20;;;;;;;16.49;49.17;75617.94;4993846;28;20050;-83
2024/02/23 12:26:29;;;;;;;0.20;0.20;;;;;;;16.71;48.59;75630.41;4993658;28;20093;-84
2024/02/23 12:29:01;;;;;;;0.20;0.20;;;;;;;16.77;48.49;75642.56;4993452;28;20050;-84
2024/02/23 12:31:27;;;;;;;0.20;0.20;;;;;;;16.33;49.94;75593.19;5009280;28;20022;-84
2024/02/23 12:33:55;;;;;;;0.20;0.20;;;;;;;16.60;50.14;75628.34;4995657;28;20098;-84
2024/02/23 12:36:23;;;;;;;0.20;0.20;;;;;;;16.51;49.13;75614.75;5031271;28;20026;-84
2024/02/23 12:38:53;;;;;;;0.20;0.20;;;;;;;16.68;49.17;75637.94;5032226;28;20042;-84
2024/02/23 12:41:24;;;;;;;0.20;0.20;;;;;;;16.59;49.28;75621.56;5028238;28;20033;-84
2024/02/23 12:43:55;;;;;;;0.20;0.20;;;;;;;16.59;50.73;75624.34;5016406;28;20033;-84